Time;durP1;ratioP1;P1;durP2;ratioP2;P2;SDS_P1;SDS_P2;PMS_P1;PMS_P2;Temp;Humidity;BMP_temperature;BMP_pressure;BME280_temperature;BME280_humidity;BME280_pressure;Samples;Min_cycle;Max_cycle;Signal;HPM_P1;HPM_P2
2022/06/25 00:10:47;;;;;;;1.42;0.90;;;27.90;58.50;;;;;;11059251;32;20022;-76
2022/06/25 00:16:49;;;;;;;1.67;0.75;;;27.90;58.60;;;;;;11058261;32;20029;-75
2022/06/25 00:22:51;;;;;;;1.10;0.90;;;27.80;58.80;;;;;;11044511;32;20061;-75
2022/06/25 00:28:53;;;;;;;2.65;1.20;;;27.80;58.90;;;;;;11058077;32;20064;-75
2022/06/25 00:35:17;;;;;;;1.90;1.02;;;27.70;59.20;;;;;;11057722;32;20402;-76
2022/06/25 00:41:19;;;;;;;0.95;0.35;;;27.60;59.40;;;;;;11057590;32;20022;-76
2022/06/25 00:47:22;;;;;;;2.12;0.82;;;27.50;59.70;;;;;;11057365;32;20061;-76
2022/06/25 00:53:30;;;;;;;5.18;1.12;;;27.30;60.10;;;;;;11057133;32;20329;-75
2022/06/25 00:59:42;;;;;;;2.22;1.08;;;27.20;60.30;;;;;;11055513;32;20385;-75
2022/06/25 01:05:44;;;;;;;4.30;0.93;;;27.00;60.40;;;;;;11056619;32;20026;-75
2022/06/25 01:11:47;;;;;;;3.03;1.25;;;26.90;60.50;;;;;;11056578;32;20022;-75
2022/06/25 01:17:52;;;;;;;2.92;0.90;;;26.80;60.90;;;;;;11055875;32;20044;-76
2022/06/25 01:23:55;;;;;;;2.30;1.05;;;26.80;61.00;;;;;;11042793;32;20022;-75
2022/06/25 01:29:57;;;;;;;2.28;1.20;;;26.70;61.00;;;;;;11056240;32;20018;-76
2022/06/25 01:35:59;;;;;;;2.75;1.08;;;26.60;61.20;;;;;;11055924;32;20052;-75
2022/06/25 01:42:03;;;;;;;2.05;0.88;;;26.60;61.20;;;;;;11056017;32;20049;-75
2022/06/25 01:48:07;;;;;;;2.58;0.95;;;26.60;61.30;;;;;;11055875;32;20033;-75
2022/06/25 01:54:09;;;;;;;3.05;1.33;;;26.40;61.30;;;;;;11055625;32;20040;-68
2022/06/25 02:00:25;;;;;;;3.45;1.25;;;26.30;61.60;;;;;;11038670;32;20044;-68
2022/06/25 02:06:28;;;;;;;3.45;1.73;;;26.20;61.80;;;;;;11051980;32;20052;-68
2022/06/25 02:12:33;;;;;;;2.47;1.45;;;26.10;61.90;;;;;;11038495;32;20026;-68
2022/06/25 02:18:36;;;;;;;3.03;1.15;;;26.00;62.10;;;;;;11052030;32;20045;-68
2022/06/25 02:24:42;;;;;;;5.85;1.80;;;26.00;62.30;;;;;;11039719;32;20060;-68
2022/06/25 02:30:45;;;;;;;2.20;1.25;;;25.90;62.40;;;;;;11054932;32;20303;-68
2022/06/25 02:36:49;;;;;;;6.95;1.17;;;25.90;62.50;;;;;;11058043;32;20026;-68
2022/06/25 02:42:52;;;;;;;2.78;1.37;;;25.80;62.60;;;;;;11043922;32;20087;-68
2022/06/25 02:48:54;;;;;;;2.85;1.40;;;25.80;62.70;;;;;;11057863;32;20033;-68
2022/06/25 02:55:07;;;;;;;1.45;0.73;;;25.80;62.70;;;;;;11057519;32;20326;-67
2022/06/25 03:01:10;;;;;;;2.85;1.42;;;25.80;62.70;;;;;;11056887;32;20030;-68
2022/06/25 03:07:12;;;;;;;1.90;1.30;;;25.80;62.70;;;;;;11056759;32;20053;-68
2022/06/25 03:13:14;;;;;;;3.37;1.55;;;25.90;62.90;;;;;;11057573;32;20029;-68
2022/06/25 03:19:17;;;;;;;4.37;1.30;;;26.10;62.90;;;;;;11057001;32;20026;-68
2022/06/25 03:25:20;;;;;;;3.20;1.65;;;26.10;62.60;;;;;;11042557;32;20055;-68
2022/06/25 03:31:23;;;;;;;2.97;1.12;;;26.00;62.80;;;;;;11055711;32;20025;-68
2022/06/25 03:37:26;;;;;;;2.80;1.52;;;26.00;62.90;;;;;;11055461;32;20056;-68
2022/06/25 03:43:28;;;;;;;1.80;1.00;;;26.00;62.70;;;;;;11055299;32;20060;-68
2022/06/25 03:49:30;;;;;;;4.60;1.12;;;25.90;62.90;;;;;;11056306;32;20030;-68
2022/06/25 03:55:33;;;;;;;7.70;0.98;;;25.80;63.30;;;;;;11054996;32;20044;-68
2022/06/25 04:01:35;;;;;;;0.80;0.70;;;25.90;63.30;;;;;;11041131;32;20034;-68
2022/06/25 04:07:38;;;;;;;2.50;1.20;;;25.60;63.60;;;;;;11054550;32;20420;-68
2022/06/25 04:13:41;;;;;;;7.37;1.67;;;25.40;63.90;;;;;;11054200;32;20335;-68
2022/06/25 04:20:03;;;;;;;7.95;1.77;;;25.30;64.10;;;;;;11054212;32;20325;-68
2022/06/25 04:26:07;;;;;;;0.90;0.82;;;25.50;63.80;;;;;;11040455;32;20394;-68
2022/06/25 04:32:09;;;;;;;3.83;1.75;;;25.50;63.60;;;;;;11007054;26;20440;-68
2022/06/25 04:38:13;;;;;;;3.58;1.30;;;25.30;63.80;;;;;;11015365;32;20022;-68
2022/06/25 04:44:20;;;;;;;1.95;1.15;;;25.30;63.70;;;;;;11018324;32;20027;-68
2022/06/25 04:50:22;;;;;;;2.28;1.35;;;25.30;63.70;;;;;;11014466;32;20339;-68
2022/06/25 04:56:29;;;;;;;0.68;0.55;;;25.30;63.70;;;;;;11015974;32;20044;-68
2022/06/25 05:02:33;;;;;;;3.83;2.00;;;25.30;63.30;;;;;;11015191;32;20385;-68
2022/06/25 05:08:36;;;;;;;1.08;0.77;;;25.30;63.60;;;;;;11000763;32;20018;-68
2022/06/25 05:14:49;;;;;;;4.93;1.30;;;25.50;63.30;;;;;;11013791;32;20061;-68
2022/06/25 05:20:52;;;;;;;2.67;0.93;;;25.50;63.30;;;;;;11004686;32;20346;-67
2022/06/25 05:26:54;;;;;;;3.33;1.52;;;25.60;63.10;;;;;;11017934;32;20350;-67
2022/06/25 05:32:59;;;;;;;2.65;1.02;;;25.60;63.10;;;;;;11015016;32;20394;-68
2022/06/25 05:39:01;;;;;;;1.87;1.00;;;25.60;62.90;;;;;;11013336;32;20057;-68
2022/06/25 05:45:35;;;;;;;1.75;1.23;;;25.80;62.70;;;;;;11016180;32;20441;-68
2022/06/25 05:51:38;;;;;;;6.28;1.20;;;26.00;62.40;;;;;;11013491;32;20049;-67
2022/06/25 05:57:40;;;;;;;1.40;1.00;;;26.30;61.60;;;;;;11001880;32;20037;-67
2022/06/25 06:03:42;;;;;;;3.08;1.40;;;26.30;61.20;;;;;;11020165;32;20054;-68
2022/06/25 06:09:44;;;;;;;3.70;1.27;;;26.40;60.70;;;;;;11024457;32;20026;-68
2022/06/25 06:15:47;;;;;;;4.87;1.55;;;26.50;60.10;;;;;;11020172;32;20033;-68
2022/06/25 06:21:50;;;;;;;2.60;1.35;;;26.60;59.90;;;;;;11024333;32;20063;-67
2022/06/25 06:27:53;;;;;;;3.78;1.37;;;26.70;59.10;;;;;;11023987;32;20397;-68
2022/06/25 06:33:55;;;;;;;3.92;1.42;;;26.70;59.40;;;;;;11023813;32;20406;-68
2022/06/25 06:39:57;;;;;;;2.28;1.17;;;26.90;59.10;;;;;;11014755;32;20026;-68
2022/06/25 06:45:59;;;;;;;2.95;1.58;;;27.00;59.10;;;;;;10984164;32;20060;-74
2022/06/25 06:52:38;;;;;;;3.83;1.42;;;27.30;58.90;;;;;;10985201;32;20037;-73
2022/06/25 06:58:40;;;;;;;5.50;2.25;;;27.30;58.30;;;;;;10795128;32;20385;-73
2022/06/25 07:04:52;;;;;;;5.65;2.12;;;27.50;58.40;;;;;;10793920;33;20058;-74
2022/06/25 07:10:55;;;;;;;6.05;1.80;;;27.70;58.70;;;;;;10793739;33;20429;-75
2022/06/25 07:16:57;;;;;;;4.43;2.37;;;27.80;58.30;;;;;;10793952;33;20055;-73
2022/06/25 07:23:00;;;;;;;5.75;1.95;;;27.90;58.20;;;;;;10794256;33;20028;-74
2022/06/25 07:29:24;;;;;;;3.37;1.40;;;28.10;58.30;;;;;;10793393;33;20074;-73
2022/06/25 07:35:26;;;;;;;8.98;1.87;;;28.20;57.90;;;;;;10939944;32;20034;-74
2022/06/25 07:41:28;;;;;;;6.78;1.52;;;28.20;57.20;;;;;;10983167;32;20026;-75
2022/06/25 07:47:37;;;;;;;7.70;2.72;;;28.20;57.10;;;;;;10983122;32;20378;-73
2022/06/25 07:53:39;;;;;;;3.20;1.60;;;28.30;56.20;;;;;;10982609;32;20057;-74
2022/06/25 07:59:59;;;;;;;3.35;1.90;;;28.30;56.20;;;;;;10982651;32;20018;-74
2022/06/25 08:06:01;;;;;;;3.30;1.67;;;28.50;55.80;;;;;;10980494;32;20069;-74
2022/06/25 08:12:04;;;;;;;8.15;1.73;;;28.60;56.50;;;;;;10982131;32;20027;-74
2022/06/25 08:18:06;;;;;;;6.35;1.60;;;28.80;56.90;;;;;;10981849;32;20034;-74
2022/06/25 08:24:08;;;;;;;6.78;2.25;;;29.00;56.40;;;;;;10981832;32;20315;-72
2022/06/25 08:30:10;;;;;;;3.87;1.75;;;29.10;55.50;;;;;;10980639;32;20355;-72
2022/06/25 08:36:13;;;;;;;5.53;2.35;;;29.00;54.90;;;;;;10981330;32;20378;-73
2022/06/25 08:42:15;;;;;;;6.22;2.28;;;28.90;54.20;;;;;;10981039;32;20026;-73
2022/06/25 08:48:37;;;;;;;2.97;1.95;;;29.00;54.00;;;;;;10981010;32;20018;-73
2022/06/25 08:54:40;;;;;;;3.58;1.70;;;29.10;53.70;;;;;;10980453;32;20034;-73
2022/06/25 09:00:45;;;;;;;5.65;2.10;;;29.40;53.30;;;;;;10980154;32;20058;-68
2022/06/25 09:06:51;;;;;;;3.90;1.20;;;29.70;53.10;;;;;;10980197;32;20022;-68
2022/06/25 09:12:55;;;;;;;3.90;1.75;;;29.80;52.90;;;;;;10979938;32;20073;-67
2022/06/25 09:18:57;;;;;;;5.72;2.45;;;30.00;52.60;;;;;;10976552;32;20053;-67
2022/06/25 09:24:59;;;;;;;2.70;1.25;;;30.10;51.90;;;;;;10979738;32;20045;-67
2022/06/25 09:31:02;;;;;;;5.65;1.67;;;30.30;51.60;;;;;;10975769;32;20023;-68
2022/06/25 09:37:26;;;;;;;1.48;1.05;;;30.40;51.50;;;;;;10964730;32;20413;-68
2022/06/25 09:43:39;;;;;;;4.45;1.80;;;30.60;51.00;;;;;;10979384;32;20023;-68
2022/06/25 09:49:42;;;;;;;5.72;1.30;;;30.80;49.90;;;;;;10977882;32;20049;-68
2022/06/25 09:55:56;;;;;;;5.37;1.45;;;30.90;49.50;;;;;;10979162;32;20057;-68
2022/06/25 10:02:04;;;;;;;2.45;0.80;;;30.90;50.00;;;;;;10963339;32;20010;-73
2022/06/25 10:08:09;;;;;;;3.95;1.67;;;31.10;49.70;;;;;;10965767;32;20049;-73
2022/06/25 10:14:12;;;;;;;6.90;1.77;;;31.30;49.00;;;;;;10978915;32;20061;-73
2022/06/25 10:20:16;;;;;;;9.60;3.22;;;31.40;48.70;;;;;;10979174;32;20409;-74
2022/06/25 10:26:20;;;;;;;9.40;1.83;;;31.50;48.70;;;;;;10978825;32;20048;-73
2022/06/25 10:32:23;;;;;;;4.85;1.73;;;31.50;47.60;;;;;;10965297;32;20053;-73
2022/06/25 10:38:26;;;;;;;8.70;2.20;;;31.70;46.90;;;;;;10964882;32;20023;-74
2022/06/25 10:44:28;;;;;;;4.50;1.70;;;31.70;45.90;;;;;;10978552;32;20053;-74
2022/06/25 10:50:31;;;;;;;9.63;2.67;;;31.80;45.90;;;;;;10980390;32;20038;-72
2022/06/25 10:56:45;;;;;;;2.53;1.55;;;32.20;46.50;;;;;;10984951;32;20242;-73
2022/06/25 11:03:31;;;;;;;2.05;1.08;;;32.40;45.50;;;;;;10984813;32;20407;-72
2022/06/25 11:10:02;;;;;;;5.93;1.67;;;32.80;45.10;;;;;;10831763;32;20054;-68
2022/06/25 11:16:16;;;;;;;4.53;1.77;;;33.10;44.10;;;;;;10830377;32;20039;-68
2022/06/25 11:22:18;;;;;;;2.95;1.17;;;33.40;43.90;;;;;;10830084;32;20036;-73
2022/06/25 11:34:41;;;;;;;2.45;1.08;;;33.90;42.90;;;;;;10829468;32;20024;-73
2022/06/25 11:40:44;;;;;;;2.67;0.70;;;34.00;41.40;;;;;;10830603;32;20050;-73
2022/06/25 11:46:48;;;;;;;2.75;0.98;;;34.30;40.90;;;;;;10950453;32;20030;-74
2022/06/25 11:52:51;;;;;;;3.65;1.83;;;34.60;39.70;;;;;;10982979;32;20035;-73
2022/06/25 11:59:06;;;;;;;1.70;1.20;;;34.60;39.20;;;;;;10982822;32;20382;-74
2022/06/25 12:05:10;;;;;;;1.60;1.12;;;34.80;38.70;;;;;;10968991;32;20026;-73
2022/06/25 12:11:55;;;;;;;1.48;0.60;;;34.80;37.90;;;;;;10978164;32;20073;-74
2022/06/25 12:18:13;;;;;;;5.68;1.80;;;34.80;37.10;;;;;;10903482;32;20023;-73
2022/06/25 12:24:17;;;;;;;9.43;1.27;;;35.00;37.30;;;;;;10902315;32;20391;-74
2022/06/25 12:30:27;;;;;;;3.12;1.35;;;35.20;37.00;;;;;;10929008;27;20030;-71
2022/06/25 12:36:30;;;;;;;1.33;0.80;;;35.10;37.00;;;;;;10939566;32;20449;-73
2022/06/25 12:42:36;;;;;;;2.62;1.42;;;34.80;37.70;;;;;;10940613;32;20413;-74
2022/06/25 12:48:38;;;;;;;4.18;1.65;;;34.80;37.80;;;;;;10940341;32;20053;-72
2022/06/25 12:54:51;;;;;;;3.10;1.58;;;34.90;37.10;;;;;;10970945;32;20026;-74
2022/06/25 13:00:53;;;;;;;2.10;1.02;;;34.80;36.90;;;;;;10980811;32;20057;-73
2022/06/25 13:06:55;;;;;;;2.05;0.80;;;35.00;36.30;;;;;;10961818;32;20315;-74
2022/06/25 13:12:58;;;;;;;2.92;1.50;;;35.10;35.20;;;;;;10942253;32;20023;-73
2022/06/25 13:19:00;;;;;;;1.60;0.90;;;34.80;35.50;;;;;;10942672;32;20421;-74
2022/06/25 13:25:05;;;;;;;1.17;0.82;;;34.80;35.80;;;;;;10942449;32;20019;-74
2022/06/25 13:31:07;;;;;;;1.33;0.60;;;34.90;35.80;;;;;;10942172;32;20354;-75
2022/06/25 13:37:11;;;;;;;3.10;1.23;;;35.00;35.30;;;;;;10942091;32;20464;-74
2022/06/25 13:43:14;;;;;;;3.83;0.88;;;34.80;34.10;;;;;;10941940;32;20323;-74
2022/06/25 13:49:17;;;;;;;1.00;0.60;;;34.70;34.30;;;;;;10941783;32;20045;-73
2022/06/25 13:55:19;;;;;;;0.30;0.30;;;34.80;34.00;;;;;;10938354;32;20019;-74
2022/06/25 14:01:21;;;;;;;3.00;0.55;;;34.80;33.90;;;;;;10941583;32;20327;-74
2022/06/25 14:07:23;;;;;;;2.50;0.55;;;34.80;33.50;;;;;;10941246;32;20068;-74
2022/06/25 14:13:31;;;;;;;0.65;0.30;;;34.80;33.40;;;;;;10937073;32;20026;-73
2022/06/25 14:19:33;;;;;;;1.20;0.30;;;34.70;33.60;;;;;;10940995;32;20026;-74
2022/06/25 14:25:35;;;;;;;1.33;0.50;;;34.60;33.40;;;;;;10931684;32;20037;-74
2022/06/25 14:31:38;;;;;;;0.43;0.30;;;34.80;33.50;;;;;;10948137;32;20019;-73
2022/06/25 14:44:00;;;;;;;1.25;0.50;;;34.90;33.00;;;;;;10947875;32;20023;-67
2022/06/25 14:50:04;;;;;;;1.95;0.73;;;34.70;32.00;;;;;;10945321;32;20323;-68
2022/06/25 14:56:06;;;;;;;1.20;0.55;;;34.60;32.40;;;;;;10944660;32;20031;-70
2022/06/25 15:02:08;;;;;;;1.35;0.68;;;34.70;32.90;;;;;;10946553;32;20022;-68
2022/06/25 15:08:10;;;;;;;5.85;1.12;;;34.70;32.70;;;;;;10947121;32;20410;-68
2022/06/25 15:14:12;;;;;;;7.37;1.30;;;34.60;33.20;;;;;;10933448;32;20027;-74
2022/06/25 15:20:14;;;;;;;2.17;0.65;;;34.60;33.00;;;;;;10933198;32;20010;-74
2022/06/25 15:26:17;;;;;;;1.23;0.40;;;34.50;33.30;;;;;;10946942;32;20015;-68
2022/06/25 15:32:19;;;;;;;0.82;0.60;;;34.70;33.20;;;;;;10942025;32;20011;-68
2022/06/25 15:38:21;;;;;;;2.85;0.93;;;34.70;33.10;;;;;;10945464;32;20061;-69
2022/06/25 15:44:23;;;;;;;2.05;1.02;;;34.60;32.90;;;;;;10945851;32;20047;-74
2022/06/25 15:50:25;;;;;;;1.12;0.57;;;34.60;33.30;;;;;;10945581;32;20049;-74
2022/06/25 15:56:27;;;;;;;2.35;1.08;;;34.50;35.20;;;;;;10975342;32;20031;-75
2022/06/25 16:02:29;;;;;;;1.58;0.95;;;34.60;34.40;;;;;;10978344;32;20053;-74
2022/06/25 16:08:32;;;;;;;3.95;1.17;;;34.60;33.70;;;;;;10969137;32;20056;-75
2022/06/25 16:14:34;;;;;;;1.77;1.25;;;34.60;33.60;;;;;;10982261;32;20330;-75
2022/06/25 16:20:37;;;;;;;5.22;1.77;;;34.70;33.70;;;;;;10982105;32;20023;-75
2022/06/25 16:26:40;;;;;;;1.52;0.93;;;34.60;33.90;;;;;;10981668;32;20045;-73
2022/06/25 16:32:43;;;;;;;1.17;0.82;;;34.60;34.10;;;;;;10981504;32;20026;-74
2022/06/25 16:38:45;;;;;;;2.95;0.93;;;34.80;34.00;;;;;;10981483;32;20022;-74
2022/06/25 16:44:47;;;;;;;0.95;0.60;;;34.80;33.20;;;;;;10980508;32;20331;-74
2022/06/25 16:50:49;;;;;;;2.42;1.30;;;34.80;33.10;;;;;;10980223;32;20049;-75
2022/06/25 16:56:53;;;;;;;4.37;1.30;;;34.70;33.00;;;;;;10980709;32;20057;-76
2022/06/25 17:02:55;;;;;;;0.60;0.40;;;34.60;32.70;;;;;;10980616;32;20030;-74
2022/06/25 17:08:57;;;;;;;1.62;0.82;;;34.70;33.10;;;;;;10980437;32;20379;-74
2022/06/25 17:15:00;;;;;;;3.33;1.45;;;34.70;32.80;;;;;;10980174;32;20049;-75
2022/06/25 17:21:25;;;;;;;1.87;0.80;;;34.80;32.60;;;;;;10975825;32;20042;-74
2022/06/25 17:27:27;;;;;;;0.80;0.60;;;34.70;33.10;;;;;;10979979;32;20014;-76
2022/06/25 17:33:32;;;;;;;2.28;0.68;;;34.70;33.40;;;;;;10979991;32;20027;-75
2022/06/25 17:39:34;;;;;;;2.72;1.00;;;34.70;33.40;;;;;;10979617;32;20023;-74
2022/06/25 17:45:36;;;;;;;1.62;0.90;;;34.50;33.20;;;;;;10979562;32;20053;-75
2022/06/25 17:51:38;;;;;;;3.28;1.12;;;34.50;33.60;;;;;;10980093;32;20069;-74
2022/06/25 17:57:40;;;;;;;2.28;1.33;;;35.00;33.30;;;;;;10979541;32;20073;-74
2022/06/25 18:03:42;;;;;;;3.85;1.00;;;36.20;32.30;;;;;;10986747;32;20053;-75
2022/06/25 18:09:47;;;;;;;1.17;0.90;;;35.80;32.80;;;;;;10986816;32;20030;-75
2022/06/25 18:15:49;;;;;;;4.62;1.20;;;34.80;34.00;;;;;;10986563;32;20390;-74
2022/06/25 18:21:52;;;;;;;5.32;1.12;;;34.20;34.70;;;;;;10986441;32;20070;-74
2022/06/25 18:27:54;;;;;;;2.45;1.10;;;33.90;35.20;;;;;;10986246;32;20030;-74
2022/06/25 18:33:56;;;;;;;3.22;1.48;;;33.60;35.90;;;;;;10986036;32;20326;-75
2022/06/25 18:40:01;;;;;;;1.30;0.95;;;33.40;36.50;;;;;;10985853;32;20022;-74
2022/06/25 18:46:06;;;;;;;2.53;0.88;;;33.20;37.00;;;;;;10983179;32;20034;-74
2022/06/25 18:52:10;;;;;;;1.40;0.73;;;33.10;37.40;;;;;;10985404;32;20023;-75
2022/06/25 18:58:16;;;;;;;0.47;0.47;;;32.90;37.90;;;;;;10971555;32;20034;-74
2022/06/25 19:04:19;;;;;;;4.47;0.93;;;32.80;38.40;;;;;;10984972;32;20023;-74
2022/06/25 19:10:22;;;;;;;9.25;1.50;;;32.70;39.00;;;;;;10970501;32;20390;-75
2022/06/25 19:16:24;;;;;;;3.83;1.77;;;32.40;39.80;;;;;;10984275;32;20070;-74
2022/06/25 19:22:26;;;;;;;2.25;1.55;;;32.30;40.90;;;;;;10984304;32;20394;-75
2022/06/25 19:28:28;;;;;;;5.75;1.75;;;32.10;41.70;;;;;;10981523;32;20358;-69
2022/06/25 19:34:30;;;;;;;2.75;1.40;;;31.90;42.20;;;;;;10980258;32;20038;-68
2022/06/25 19:40:32;;;;;;;3.35;1.37;;;31.80;42.40;;;;;;10981011;32;20050;-68
2022/06/25 19:46:36;;;;;;;1.52;1.05;;;31.80;42.80;;;;;;10981393;32;20370;-68
2022/06/25 19:52:38;;;;;;;4.30;1.85;;;31.70;43.10;;;;;;10978794;32;20056;-68
2022/06/25 19:58:40;;;;;;;1.60;0.80;;;31.50;43.60;;;;;;10980497;32;20027;-68
2022/06/25 20:05:06;;;;;;;1.95;1.45;;;31.40;43.80;;;;;;10967840;32;20027;-69
2022/06/25 20:11:09;;;;;;;2.33;1.75;;;31.30;44.20;;;;;;10942021;32;20430;-69
2022/06/25 20:17:12;;;;;;;3.87;1.62;;;31.20;44.70;;;;;;10940193;32;20401;-68
2022/06/25 20:23:14;;;;;;;1.83;1.02;;;31.10;44.90;;;;;;10940287;32;20059;-68
2022/06/25 20:29:18;;;;;;;2.27;0.97;;;30.90;45.40;;;;;;10460191;27;16448401;-67
2022/06/25 20:35:20;;;;;;;10.65;1.40;;;30.90;45.70;;;;;;10977222;32;20022;-67
2022/06/25 20:41:23;;;;;;;1.65;0.93;;;30.90;46.00;;;;;;10976971;32;20045;-68
2022/06/25 20:47:25;;;;;;;4.35;1.65;;;30.80;46.40;;;;;;10976873;32;20054;-67
2022/06/25 20:53:27;;;;;;;2.10;1.58;;;30.60;47.10;;;;;;10976565;32;20019;-67
2022/06/25 20:59:29;;;;;;;3.97;1.55;;;30.60;47.40;;;;;;10962979;32;20053;-67
2022/06/25 21:11:53;;;;;;;5.12;1.55;;;30.50;48.30;;;;;;10976149;32;20383;-67
2022/06/25 21:17:55;;;;;;;3.87;1.35;;;30.40;48.40;;;;;;10962345;32;20092;-67
2022/06/25 21:23:58;;;;;;;6.62;1.67;;;30.30;48.40;;;;;;10975627;32;20019;-67
2022/06/25 21:30:00;;;;;;;4.95;1.52;;;30.30;48.90;;;;;;10975428;32;20018;-67
2022/06/25 21:36:03;;;;;;;4.75;1.75;;;30.30;49.80;;;;;;10974860;32;20026;-66
2022/06/25 21:42:05;;;;;;;2.97;1.17;;;30.30;50.90;;;;;;10961744;32;20054;-67
2022/06/25 21:48:07;;;;;;;3.22;1.00;;;30.20;51.30;;;;;;10975111;32;20019;-68
2022/06/25 21:54:11;;;;;;;1.52;1.17;;;30.10;51.30;;;;;;10974870;32;20049;-67
2022/06/25 22:00:56;;;;;;;3.70;1.45;;;30.10;51.30;;;;;;10859799;32;20023;-67
2022/06/25 22:06:58;;;;;;;4.72;1.33;;;30.10;51.30;;;;;;10831904;32;20507;-67
2022/06/25 22:13:01;;;;;;;3.10;1.02;;;29.90;51.40;;;;;;10855377;32;20043;-67
2022/06/25 22:19:04;;;;;;;3.33;1.40;;;29.90;51.50;;;;;;10855262;32;20717;-67
2022/06/25 22:25:07;;;;;;;6.15;2.22;;;29.90;51.90;;;;;;10856501;32;20023;-68
2022/06/25 22:31:20;;;;;;;4.60;2.10;;;29.80;53.40;;;;;;10919943;32;20042;-68
2022/06/25 22:37:22;;;;;;;4.53;1.15;;;29.60;55.30;;;;;;10936522;32;20015;-67
2022/06/25 22:43:24;;;;;;;4.65;1.80;;;29.60;55.20;;;;;;10936671;32;20031;-68
2022/06/25 22:49:45;;;;;;;14.55;2.03;;;29.50;55.20;;;;;;10943305;32;20373;-67
2022/06/25 22:55:52;;;;;;;2.20;1.30;;;29.30;55.30;;;;;;10943120;32;20422;-67
2022/06/25 23:01:54;;;;;;;1.67;1.10;;;29.30;56.00;;;;;;10942949;32;20323;-67
2022/06/25 23:07:58;;;;;;;2.55;1.73;;;29.30;56.00;;;;;;10943134;32;20045;-67
2022/06/25 23:14:01;;;;;;;4.12;1.67;;;29.20;56.90;;;;;;10942544;32;20407;-68
2022/06/25 23:20:31;;;;;;;2.87;1.33;;;28.90;58.50;;;;;;10941368;32;20046;-68
2022/06/25 23:26:57;;;;;;;4.47;2.03;;;28.80;58.10;;;;;;10940462;32;20023;-68
2022/06/25 23:33:02;;;;;;;10.40;2.35;;;28.80;59.20;;;;;;10942456;32;20034;-68
2022/06/25 23:40:02;;;;;;;3.58;1.73;;;28.80;59.70;;;;;;10943494;32;20038;-68
2022/06/25 23:46:04;;;;;;;2.97;1.23;;;28.80;59.80;;;;;;10941436;32;20383;-68
2022/06/25 23:52:06;;;;;;;3.53;1.23;;;28.80;60.10;;;;;;10941390;32;20042;-67
2022/06/25 23:58:08;;;;;;;3.55;1.70;;;28.90;59.90;;;;;;10940891;32;20035;-68
